Terminal Aerodrome Forecast
Issued by NWS Cleveland, OH

Home | Current Version | Previous Version | Graphics & Text | Print | Product List | Glossary Off
Versions: 1 2 3 4 5 6 7 8 9 10 11 12 13 14 15 16 17 18 19 20 21

000
FTUS41 KCLE 210900 AAA
TAFYNG
TAF AMD
KYNG 210911Z 2109/2206 VRB04KT 6SM BR SCT050
     FM211000 23004KT 4SM BR FEW015 SCT025
      TEMPO 2110/2113 1SM BR BKN015
     FM211400 25005KT P6SM BKN035
     FM212000 23005KT P6SM VCTS SCT035CB BKN100
      TEMPO 2121/2201 2SM TSRA BR SCT015 OVC025CB
     FM220100 23004KT P6SM SCT035 BKN100=

USA.gov is the U.S. government's official web portal to all federal, state and local government web resources and services.